Time;durP1;ratioP1;P1;durP2;ratioP2;P2;SDS_P1;SDS_P2;PMS_P1;PMS_P2;Temp;Humidity;BMP_temperature;BMP_pressure;BME280_temperature;BME280_humidity;BME280_pressure;Samples;Min_cycle;Max_cycle;Signal;HPM_P1;HPM_P2
2021/08/25 00:00:32;;;;;;;1999.90;999.90;;;;;;;12.38;40.58;102137.28;5066042;27;97166;-74
2021/08/25 00:03:02;;;;;;;1999.90;999.90;;;;;;;12.38;40.57;102134.63;5048666;27;100178;-74
2021/08/25 00:05:30;;;;;;;1999.90;999.90;;;;;;;12.37;40.70;102131.84;5064402;27;100705;-74
2021/08/25 00:07:58;;;;;;;1999.90;999.90;;;;;;;12.37;40.69;102131.84;5085828;27;97015;-74
2021/08/25 00:10:26;;;;;;;1999.90;999.90;;;;;;;12.34;40.64;102134.44;5086691;27;96917;-75
2021/08/25 00:12:53;;;;;;;1999.90;999.90;;;;;;;12.31;40.84;102126.34;5049068;27;99607;-75
2021/08/25 00:15:22;;;;;;;1999.90;999.90;;;;;;;12.30;40.78;102125.41;5084230;27;97716;-75
2021/08/25 00:17:50;;;;;;;1999.90;999.90;;;;;;;12.30;40.94;102121.81;5066217;27;97259;-74
2021/08/25 00:20:19;;;;;;;1999.90;999.90;;;;;;;12.27;41.02;102119.06;5048784;27;96777;-75
2021/08/25 00:22:47;;;;;;;1999.90;999.90;;;;;;;12.21;40.94;102118.84;5066168;27;97648;-74
2021/08/25 00:25:15;;;;;;;1999.90;999.90;;;;;;;12.16;41.16;102127.53;5046979;27;100372;-74
2021/08/25 00:27:43;;;;;;;1999.90;999.90;;;;;;;12.15;41.17;102115.06;5066303;27;96767;-74
2021/08/25 00:30:12;;;;;;;1999.90;999.90;;;;;;;12.16;41.08;102115.97;5082480;27;96857;-74
2021/08/25 00:32:40;;;;;;;1999.90;999.90;;;;;;;12.16;41.07;102116.88;5065304;27;100476;-74
2021/08/25 00:35:09;;;;;;;1999.90;999.90;;;;;;;12.17;41.12;102117.81;5046901;27;99160;-74
2021/08/25 00:37:39;;;;;;;1999.90;999.90;;;;;;;12.16;41.04;102108.88;5063960;27;97257;-75
2021/08/25 00:40:08;;;;;;;1999.90;999.90;;;;;;;12.11;41.35;102113.13;5066360;27;97113;-74
2021/08/25 00:42:36;;;;;;;1999.90;999.90;;;;;;;12.10;41.31;102116.66;5066351;27;100457;-75
2021/08/25 00:45:05;;;;;;;1999.90;999.90;;;;;;;12.08;41.25;102107.69;5064375;27;99863;-74
2021/08/25 00:47:33;;;;;;;1999.90;999.90;;;;;;;12.06;41.21;102098.72;5047934;27;97374;-75
2021/08/25 00:50:01;;;;;;;1999.90;999.90;;;;;;;12.06;41.24;102101.41;5065220;27;97008;-74
2021/08/25 00:52:29;;;;;;;1999.90;999.90;;;;;;;12.03;41.56;102106.63;5049390;27;99149;-75
2021/08/25 00:54:59;;;;;;;1999.90;999.90;;;;;;;11.97;41.68;102093.06;5047106;27;99377;-75
2021/08/25 00:57:28;;;;;;;1999.90;999.90;;;;;;;11.92;41.57;102092.00;5086265;27;97191;-75
2021/08/25 00:59:56;;;;;;;1999.90;999.90;;;;;;;11.86;41.67;102097.09;5065227;27;96865;-74
2021/08/25 01:02:26;;;;;;;1999.90;999.90;;;;;;;11.85;41.89;102089.94;5049187;27;99330;-74
2021/08/25 01:04:58;;;;;;;1999.90;999.90;;;;;;;11.85;41.73;102089.03;5064207;27;99787;-75
2021/08/25 01:07:28;;;;;;;1999.90;999.90;;;;;;;11.85;41.89;102092.59;5048163;27;96783;-74
2021/08/25 01:09:56;;;;;;;1999.90;999.90;;;;;;;11.83;41.85;102074.75;5066269;27;97115;-74
2021/08/25 01:12:27;;;;;;;1999.90;999.90;;;;;;;11.82;41.82;102089.81;5065910;27;99396;-74
2021/08/25 01:14:56;;;;;;;1999.90;999.90;;;;;;;11.81;41.86;102082.69;5067636;27;99985;-74
2021/08/25 01:17:25;;;;;;;1999.90;999.90;;;;;;;11.79;41.96;102076.41;5069104;27;97311;-75
2021/08/25 01:19:58;;;;;;;1999.90;999.90;;;;;;;11.76;41.93;102076.25;5087877;27;96823;-74
2021/08/25 01:22:26;;;;;;;1999.90;999.90;;;;;;;11.75;42.03;102074.47;5084363;27;99141;-74
2021/08/25 01:24:54;;;;;;;1999.90;999.90;;;;;;;11.74;41.86;102071.75;5067806;27;99281;-76
2021/08/25 01:27:24;;;;;;;1999.90;999.90;;;;;;;11.71;41.93;102066.28;5046709;27;97240;-74
2021/08/25 01:29:54;;;;;;;1999.90;999.90;;;;;;;11.66;41.80;102067.88;5066792;27;97395;-74
2021/08/25 01:32:22;;;;;;;1999.90;999.90;;;;;;;11.56;42.13;102061.28;5064572;27;100355;-74
2021/08/25 01:34:55;;;;;;;1999.90;999.90;;;;;;;11.43;42.30;102052.78;5047668;27;99731;-74
2021/08/25 01:37:23;;;;;;;1999.90;999.90;;;;;;;11.30;42.57;102056.72;5062273;27;96917;-74
2021/08/25 01:39:53;;;;;;;1999.90;999.90;;;;;;;11.21;43.04;102056.34;5046755;27;96859;-75
2021/08/25 01:42:21;;;;;;;1999.90;999.90;;;;;;;11.15;42.96;102049.03;5048793;27;100428;-75
2021/08/25 01:44:50;;;;;;;1999.90;999.90;;;;;;;11.65;42.28;102052.75;5081890;27;98653;-74
2021/08/25 01:47:20;;;;;;;1999.90;999.90;;;;;;;11.40;42.77;102048.22;5063734;27;97186;-74
2021/08/25 01:49:47;;;;;;;1999.90;999.90;;;;;;;11.35;42.87;102047.16;5085804;27;96811;-75
2021/08/25 01:52:16;;;;;;;1999.90;999.90;;;;;;;11.35;42.90;102044.50;5047098;27;99746;-75
2021/08/25 01:54:45;;;;;;;1999.90;999.90;;;;;;;11.34;42.73;102045.34;5064798;27;99168;-74
2021/08/25 01:57:12;;;;;;;1999.90;999.90;;;;;;;11.34;42.78;102033.78;5064643;27;96879;-75
2021/08/25 01:59:40;;;;;;;1999.90;999.90;;;;;;;11.34;42.52;102037.38;5065678;27;96926;-75
2021/08/25 02:02:09;;;;;;;1999.90;999.90;;;;;;;11.33;42.62;102030.19;5065281;27;99693;-75
2021/08/25 02:04:38;;;;;;;1999.90;999.90;;;;;;;11.33;42.84;102035.53;5084537;27;97993;-74
2021/08/25 02:07:06;;;;;;;1999.90;999.90;;;;;;;11.31;42.47;102030.94;5064858;27;96889;-74
2021/08/25 02:09:34;;;;;;;1999.90;999.90;;;;;;;11.27;42.58;102027.25;5064618;27;96979;-74
2021/08/25 02:12:02;;;;;;;1999.90;999.90;;;;;;;11.23;42.74;102022.69;5085044;27;97613;-75
2021/08/25 02:14:30;;;;;;;1999.90;999.90;;;;;;;11.20;42.74;102026.13;5064216;27;99223;-74
2021/08/25 02:16:58;;;;;;;1999.90;999.90;;;;;;;11.17;42.79;102017.13;5047855;27;97339;-74
2021/08/25 02:19:25;;;;;;;1999.90;999.90;;;;;;;11.12;42.81;102022.25;5083707;27;97304;-75
2021/08/25 02:21:55;;;;;;;1999.90;999.90;;;;;;;11.09;42.80;102021.22;5084240;27;99047;-75
2021/08/25 02:24:23;;;;;;;1999.90;999.90;;;;;;;11.08;42.78;102020.34;5066379;27;99147;-74
2021/08/25 02:26:50;;;;;;;1999.90;999.90;;;;;;;11.04;42.94;102014.81;5064192;27;96858;-75
2021/08/25 02:29:19;;;;;;;1999.90;999.90;;;;;;;10.98;42.86;102014.56;5062890;27;96926;-75
2021/08/25 02:31:47;;;;;;;1999.90;999.90;;;;;;;10.94;43.11;102021.53;5064680;27;99983;-75
2021/08/25 02:34:15;;;;;;;1999.90;999.90;;;;;;;10.88;43.25;102021.31;5063079;27;100424;-75
2021/08/25 02:36:43;;;;;;;1999.90;999.90;;;;;;;10.86;43.28;102014.09;5083127;27;96777;-75
2021/08/25 02:39:12;;;;;;;1999.90;999.90;;;;;;;10.86;43.15;102011.44;5046808;27;96994;-75
2021/08/25 02:41:41;;;;;;;1999.90;999.90;;;;;;;10.87;43.17;102011.50;5065161;27;100715;-75
2021/08/25 02:44:09;;;;;;;1999.90;999.90;;;;;;;10.88;43.14;102004.44;5063573;27;97416;-75
2021/08/25 02:46:37;;;;;;;1999.90;999.90;;;;;;;10.82;43.27;101996.19;5083661;27;96836;-75
2021/08/25 02:49:05;;;;;;;1999.90;999.90;;;;;;;10.78;43.23;101999.56;5046683;27;97532;-75
2021/08/25 02:51:33;;;;;;;1999.90;999.90;;;;;;;10.79;43.33;101996.06;5047780;27;97692;-74
2021/08/25 02:54:01;;;;;;;1999.90;999.90;;;;;;;10.74;43.30;101995.88;5066347;27;97710;-75
2021/08/25 02:56:30;;;;;;;1999.90;999.90;;;;;;;10.74;43.15;101984.34;5067709;27;97135;-74
2021/08/25 02:58:58;;;;;;;1999.90;999.90;;;;;;;10.73;43.43;101979.84;5085422;27;96902;-75
2021/08/25 03:01:26;;;;;;;1999.90;999.90;;;;;;;10.68;43.51;101981.44;5086557;27;98332;-74
2021/08/25 03:03:55;;;;;;;1999.90;999.90;;;;;;;10.62;43.74;101978.50;5047275;27;99834;-75
2021/08/25 03:06:23;;;;;;;1999.90;999.90;;;;;;;10.49;43.75;101969.13;5084677;27;96919;-75
2021/08/25 03:08:52;;;;;;;1999.90;999.90;;;;;;;10.44;43.95;101972.47;5085517;27;96769;-75
2021/08/25 03:11:20;;;;;;;1999.90;999.90;;;;;;;10.42;43.88;101969.75;5065764;27;98744;-75
2021/08/25 03:13:50;;;;;;;1999.90;999.90;;;;;;;10.40;44.13;101962.50;5065545;27;99044;-75
2021/08/25 03:16:18;;;;;;;1999.90;999.90;;;;;;;10.23;44.14;101959.13;5066391;27;97393;-75
2021/08/25 03:18:45;;;;;;;1999.90;999.90;;;;;;;10.08;44.46;101961.19;5086276;27;96860;-75
2021/08/25 03:21:14;;;;;;;1999.90;999.90;;;;;;;9.96;44.71;101958.91;5061253;27;97800;-75
2021/08/25 03:23:45;;;;;;;1999.90;999.90;;;;;;;9.86;44.87;101962.00;5050877;27;99180;-75
2021/08/25 03:26:13;;;;;;;1999.90;999.90;;;;;;;9.73;45.02;101957.03;5067546;27;96720;-75
2021/08/25 03:28:41;;;;;;;1999.90;999.90;;;;;;;9.66;45.31;101960.28;5067609;27;97577;-75
2021/08/25 03:31:10;;;;;;;1999.90;999.90;;;;;;;9.61;45.31;101955.59;5067012;27;100330;-75
2021/08/25 03:33:38;;;;;;;1999.90;999.90;;;;;;;9.62;45.30;101955.66;5086916;27;99678;-75
2021/08/25 03:36:06;;;;;;;1999.90;999.90;;;;;;;9.68;45.23;101961.22;5067764;27;96903;-74
2021/08/25 03:38:34;;;;;;;1999.90;999.90;;;;;;;9.75;45.02;101957.09;5049290;27;97430;-74
2021/08/25 03:41:02;;;;;;;1999.90;999.90;;;;;;;9.80;44.69;101959.13;5066722;27;99546;-74
2021/08/25 03:43:30;;;;;;;1999.90;999.90;;;;;;;9.85;44.76;101948.66;5084792;27;99543;-74
2021/08/25 03:45:58;;;;;;;1999.90;999.90;;;;;;;9.88;44.72;101938.16;5066804;27;97277;-74
2021/08/25 03:48:28;;;;;;;1999.90;999.90;;;;;;;9.90;44.50;101942.69;5066519;27;96846;-74
2021/08/25 03:50:56;;;;;;;1999.90;999.90;;;;;;;9.90;44.47;101936.50;5084596;27;97604;-75
2021/08/25 03:53:24;;;;;;;1999.90;999.90;;;;;;;9.90;44.30;101942.69;5050171;27;99231;-75
2021/08/25 03:55:52;;;;;;;1999.90;999.90;;;;;;;9.89;44.41;101948.88;5066233;27;96781;-75
2021/08/25 03:58:20;;;;;;;1999.90;999.90;;;;;;;9.89;44.40;101938.22;5086876;27;96706;-74
2021/08/25 04:00:48;;;;;;;1999.90;999.90;;;;;;;9.88;44.43;101944.38;5064406;27;99383;-75
2021/08/25 04:03:16;;;;;;;1999.90;999.90;;;;;;;9.88;44.44;101940.84;5067816;27;97565;-75
2021/08/25 04:05:45;;;;;;;1999.90;999.90;;;;;;;9.87;44.69;101933.69;5065548;27;96968;-75
2021/08/25 04:08:13;;;;;;;1999.90;999.90;;;;;;;9.85;44.45;101936.28;5066739;27;96842;-75
2021/08/25 04:10:41;;;;;;;1999.90;999.90;;;;;;;9.84;44.44;101941.53;5085894;27;97780;-75
2021/08/25 04:13:09;;;;;;;1999.90;999.90;;;;;;;9.82;44.61;101930.84;5047672;27;99313;-75
2021/08/25 04:15:40;;;;;;;1999.90;999.90;;;;;;;9.82;44.42;101933.50;5067837;27;96912;-75
2021/08/25 04:18:08;;;;;;;1999.90;999.90;;;;;;;9.81;44.59;101931.66;5083537;27;96814;-75
2021/08/25 04:20:36;;;;;;;1999.90;999.90;;;;;;;9.80;44.77;101932.53;5049800;27;99385;-75
2021/08/25 04:23:05;;;;;;;1999.90;999.90;;;;;;;9.80;44.72;101939.59;5085199;27;97582;-75
2021/08/25 04:25:33;;;;;;;1999.90;999.90;;;;;;;9.77;44.77;101937.69;5047176;27;97253;-75
2021/08/25 04:28:01;;;;;;;1999.90;999.90;;;;;;;9.78;45.05;101938.59;5060415;27;97332;-75
2021/08/25 04:30:29;;;;;;;1999.90;999.90;;;;;;;9.76;45.23;101934.97;5058384;27;100039;-75
2021/08/25 04:32:57;;;;;;;1999.90;999.90;;;;;;;9.75;45.01;101931.44;5063208;27;100526;-75
2021/08/25 04:35:25;;;;;;;1999.90;999.90;;;;;;;9.74;45.15;101928.69;5082548;27;97426;-75
2021/08/25 04:37:53;;;;;;;1999.90;999.90;;;;;;;9.73;45.18;101930.47;5077583;27;97153;-75
2021/08/25 04:40:23;;;;;;;1999.90;999.90;;;;;;;9.72;45.36;101920.66;5080614;27;97464;-75
2021/08/25 04:42:51;;;;;;;1999.90;999.90;;;;;;;9.70;45.28;101922.31;5045915;27;99218;-76
2021/08/25 04:45:19;;;;;;;1999.90;999.90;;;;;;;9.69;45.41;101919.59;5065193;27;96830;-75
2021/08/25 04:47:50;;;;;;;1999.90;999.90;;;;;;;9.68;45.54;101916.03;5087036;27;96614;-75
2021/08/25 04:50:18;;;;;;;1999.90;999.90;;;;;;;9.67;45.49;101924.88;5050116;27;99598;-75
2021/08/25 04:52:46;;;;;;;1999.90;999.90;;;;;;;9.67;45.54;101924.88;5046852;27;99325;-75
2021/08/25 04:55:15;;;;;;;1999.90;999.90;;;;;;;9.67;45.61;101923.94;5084138;27;97349;-75
2021/08/25 04:57:44;;;;;;;1999.90;999.90;;;;;;;9.66;45.69;101917.75;5062310;27;96835;-75
2021/08/25 05:00:13;;;;;;;1999.90;999.90;;;;;;;10.07;45.98;101915.06;5058323;27;99494;-75
2021/08/25 05:02:41;;;;;;;1999.90;999.90;;;;;;;10.20;46.47;101911.16;5060853;27;97851;-75
2021/08/25 05:05:10;;;;;;;1999.90;999.90;;;;;;;10.25;46.68;101896.25;5060573;27;97077;-75
2021/08/25 05:07:38;;;;;;;1999.90;999.90;;;;;;;10.30;46.89;101907.09;5065446;27;96867;-75
2021/08/25 05:10:07;;;;;;;1999.90;999.90;;;;;;;9.98;47.21;101901.38;5065175;27;100381;-75
2021/08/25 05:12:35;;;;;;;1999.90;999.90;;;;;;;10.22;46.88;101898.81;5084320;27;99244;-75
2021/08/25 05:15:05;;;;;;;1999.90;999.90;;;;;;;9.94;47.24;101899.44;5085109;27;96758;-74
2021/08/25 05:17:33;;;;;;;1999.90;999.90;;;;;;;10.20;46.98;101893.44;5065466;27;97100;-75
2021/08/25 05:20:01;;;;;;;1999.90;999.90;;;;;;;10.36;47.08;101892.28;5082101;27;98472;-75
2021/08/25 05:22:29;;;;;;;1999.90;999.90;;;;;;;10.44;46.81;101887.31;5081735;27;97618;-74
2021/08/25 05:24:57;;;;;;;1999.90;999.90;;;;;;;10.43;47.10;101883.72;5057021;27;97043;-75
2021/08/25 05:27:25;;;;;;;1999.90;999.90;;;;;;;10.15;47.50;101889.69;5047390;27;96979;-75
2021/08/25 05:29:54;;;;;;;1999.90;999.90;;;;;;;10.05;47.59;101890.16;5062480;27;99056;-75
2021/08/25 05:32:23;;;;;;;1999.90;999.90;;;;;;;10.40;47.46;101880.91;5080416;27;97781;-75
2021/08/25 05:34:51;;;;;;;1999.90;999.90;;;;;;;10.51;47.56;101876.03;5065907;27;97339;-74
2021/08/25 05:37:19;;;;;;;1999.90;999.90;;;;;;;10.60;47.79;101881.72;5081543;27;96821;-75
2021/08/25 05:39:47;;;;;;;1999.90;999.90;;;;;;;10.33;47.98;101877.94;5062980;27;98133;-75
2021/08/25 05:42:15;;;;;;;1999.90;999.90;;;;;;;10.26;47.85;101878.56;5063520;27;100424;-76
2021/08/25 05:44:43;;;;;;;1999.90;999.90;;;;;;;10.21;47.83;101879.28;5082231;27;96844;-75
2021/08/25 05:47:11;;;;;;;1999.90;999.90;;;;;;;10.17;47.80;101882.66;5064006;27;97378;-76
2021/08/25 05:49:41;;;;;;;1999.90;999.90;;;;;;;10.15;47.73;101876.41;5049672;27;101057;-77
2021/08/25 05:52:09;;;;;;;1999.90;999.90;;;;;;;10.13;47.77;101867.44;5049376;27;99278;-76
2021/08/25 05:54:37;;;;;;;1999.90;999.90;;;;;;;10.13;47.62;101878.09;5067861;27;96931;-76
2021/08/25 05:57:05;;;;;;;1999.90;999.90;;;;;;;10.14;47.61;101874.56;5067164;27;97229;-76
2021/08/25 05:59:32;;;;;;;1999.90;999.90;;;;;;;10.17;47.79;101869.34;5086147;27;98849;-76
2021/08/25 06:02:02;;;;;;;1999.90;999.90;;;;;;;10.18;47.60;101867.59;5060107;27;100769;-78
2021/08/25 06:04:31;;;;;;;1999.90;999.90;;;;;;;10.19;47.60;101866.78;5061711;27;96915;-77
2021/08/25 06:07:00;;;;;;;1999.90;999.90;;;;;;;10.18;47.32;101868.53;5043019;27;96860;-77
2021/08/25 06:09:28;;;;;;;1999.90;999.90;;;;;;;10.20;47.49;101871.25;5080432;27;97870;-75
2021/08/25 06:11:58;;;;;;;1999.90;999.90;;;;;;;10.66;47.07;101860.66;5061430;27;99302;-75
2021/08/25 06:14:26;;;;;;;1999.90;999.90;;;;;;;10.44;47.58;101858.94;5047175;27;97201;-76
2021/08/25 06:16:54;;;;;;;1999.90;999.90;;;;;;;10.40;47.60;101858.72;5045675;27;96942;-77
2021/08/25 06:19:22;;;;;;;1999.90;999.90;;;;;;;10.40;47.38;101843.66;5083454;27;97872;-77
2021/08/25 06:21:51;;;;;;;1999.90;999.90;;;;;;;10.86;46.96;101846.34;5083001;27;98082;-76
2021/08/25 06:24:20;;;;;;;1999.90;999.90;;;;;;;10.65;47.30;101843.78;5065984;27;96830;-77
2021/08/25 06:26:49;;;;;;;1999.90;999.90;;;;;;;10.61;47.35;101848.94;5082643;27;96910;-77
2021/08/25 06:29:20;;;;;;;1999.90;999.90;;;;;;;11.03;46.61;101850.53;5070135;27;99008;-77
2021/08/25 06:31:49;;;;;;;1999.90;999.90;;;;;;;10.79;46.71;101846.97;5069591;27;98461;-76
2021/08/25 06:34:17;;;;;;;1999.90;999.90;;;;;;;10.74;46.87;101840.56;5068252;27;96848;-76
2021/08/25 06:36:45;;;;;;;1999.90;999.90;;;;;;;10.73;46.94;101852.97;5068540;27;97029;-76
2021/08/25 06:39:13;;;;;;;1999.90;999.90;;;;;;;10.76;46.84;101852.16;5068639;27;99741;-77
2021/08/25 06:41:42;;;;;;;1999.90;999.90;;;;;;;11.22;46.61;101853.00;5085462;27;96966;-76
2021/08/25 06:44:11;;;;;;;1999.90;999.90;;;;;;;11.01;47.08;101852.25;5050817;27;97171;-76
2021/08/25 06:46:38;;;;;;;1999.90;999.90;;;;;;;10.97;47.07;101852.97;5089168;27;96896;-76
2021/08/25 06:49:06;;;;;;;1999.90;999.90;;;;;;;10.99;46.97;101845.94;5067188;27;99464;-76
2021/08/25 06:51:34;;;;;;;1999.90;999.90;;;;;;;11.00;46.89;101847.75;5048387;27;99914;-77
2021/08/25 06:54:02;;;;;;;1999.90;999.90;;;;;;;10.99;46.81;101843.28;5086409;27;96840;-77
2021/08/25 06:56:30;;;;;;;1999.90;999.90;;;;;;;10.98;46.74;101839.69;5069007;27;97059;-77
2021/08/25 06:58:59;;;;;;;1999.90;999.90;;;;;;;11.41;45.57;101842.16;5085758;27;97592;-77
2021/08/25 07:01:27;;;;;;;1999.90;999.90;;;;;;;11.16;46.03;101844.75;5065561;27;99211;-77
2021/08/25 07:03:56;;;;;;;1999.90;999.90;;;;;;;11.09;45.97;101850.72;5067511;27;96977;-77
2021/08/25 07:06:24;;;;;;;1999.90;999.90;;;;;;;11.04;46.17;101847.00;5083364;27;96880;-77
2021/08/25 07:08:52;;;;;;;1999.90;999.90;;;;;;;11.01;46.18;101844.25;5050885;27;99320;-76
2021/08/25 07:11:20;;;;;;;1999.90;999.90;;;;;;;10.97;45.96;101837.91;5067308;27;100616;-77
2021/08/25 07:13:48;;;;;;;1999.90;999.90;;;;;;;10.94;46.04;101840.44;5087554;27;96920;-77
2021/08/25 07:16:18;;;;;;;1999.90;999.90;;;;;;;10.90;46.07;101835.84;5088611;27;96834;-78
2021/08/25 07:18:47;;;;;;;1999.90;999.90;;;;;;;10.86;45.96;101833.03;5068203;27;97590;-78
2021/08/25 07:21:17;;;;;;;1999.90;999.90;;;;;;;10.81;45.79;101821.31;5052043;27;99538;-77
2021/08/25 07:23:50;;;;;;;1999.90;999.90;;;;;;;10.77;45.91;101832.69;5067901;27;96728;-78
2021/08/25 07:26:18;;;;;;;1999.90;999.90;;;;;;;10.77;45.95;101819.38;5069191;27;97426;-77
2021/08/25 07:28:47;;;;;;;1999.90;999.90;;;;;;;10.78;45.62;101819.44;5085716;27;97991;-78
2021/08/25 07:31:15;;;;;;;1999.90;999.90;;;;;;;10.81;45.86;101821.31;5050675;27;99625;-78
2021/08/25 07:33:46;;;;;;;1999.90;999.90;;;;;;;10.86;45.62;101817.06;5051729;27;96848;-77
2021/08/25 07:36:18;;;;;;;1999.90;999.90;;;;;;;10.93;45.67;101824.41;5067401;27;97360;-76
2021/08/25 07:38:46;;;;;;;1999.90;999.90;;;;;;;10.97;45.66;101821.94;5084546;27;99013;-76
2021/08/25 07:41:16;;;;;;;1999.90;999.90;;;;;;;10.98;45.43;101817.47;5051614;27;100344;-77
2021/08/25 07:43:44;;;;;;;1999.90;999.90;;;;;;;11.00;45.58;101815.78;5050492;27;96799;-77
2021/08/25 07:46:13;;;;;;;1999.90;999.90;;;;;;;11.03;45.52;101816.78;5087606;27;97315;-77
2021/08/25 07:48:45;;;;;;;1999.90;999.90;;;;;;;11.08;45.39;101808.97;5048905;27;101104;-77
2021/08/25 07:51:14;;;;;;;1999.90;999.90;;;;;;;11.12;45.46;101808.25;5066828;27;100450;-77
2021/08/25 07:53:43;;;;;;;1999.90;999.90;;;;;;;11.19;45.35;101804.94;5050228;27;96944;-77
2021/08/25 07:56:11;;;;;;;1999.90;999.90;;;;;;;11.23;45.33;101796.19;5066188;27;96913;-77
2021/08/25 07:58:41;;;;;;;1999.90;999.90;;;;;;;11.31;45.23;101784.06;5049636;27;97470;-77
2021/08/25 08:01:12;;;;;;;1999.90;999.90;;;;;;;11.37;45.04;101786.03;5084761;27;98912;-77
2021/08/25 08:03:41;;;;;;;1999.90;999.90;;;;;;;11.42;45.18;101780.00;5052015;27;96818;-77
2021/08/25 08:06:10;;;;;;;1999.90;999.90;;;;;;;11.48;45.21;101773.97;5087899;27;97271;-77
2021/08/25 08:08:38;;;;;;;1999.90;999.90;;;;;;;11.53;45.24;101769.69;5083956;27;98362;-77
2021/08/25 08:11:06;;;;;;;1999.90;999.90;;;;;;;11.60;45.12;101761.94;5069325;27;99253;-77
2021/08/25 08:13:34;;;;;;;1999.90;999.90;;;;;;;11.67;44.98;101760.41;5068912;27;97011;-77
2021/08/25 08:16:03;;;;;;;1999.90;999.90;;;;;;;11.71;44.70;101763.19;5068245;27;96953;-77
2021/08/25 08:18:33;;;;;;;1999.90;999.90;;;;;;;11.77;44.66;101757.16;5087146;27;98586;-77
2021/08/25 08:21:01;;;;;;;1999.90;999.90;;;;;;;11.82;44.77;101753.78;5068804;27;100840;-78
2021/08/25 08:23:32;;;;;;;1999.90;999.90;;;;;;;11.88;44.82;101745.06;5049819;27;96978;-77
2021/08/25 08:26:00;;;;;;;1999.90;999.90;;;;;;;11.94;44.57;101738.13;5049048;27;96920;-78
2021/08/25 08:28:28;;;;;;;1999.90;999.90;;;;;;;11.98;44.77;101732.03;5048747;27;99315;-78
2021/08/25 08:30:56;;;;;;;1999.90;999.90;;;;;;;12.07;44.63;101734.13;5066741;27;99877;-77
2021/08/25 08:33:28;;;;;;;1999.90;999.90;;;;;;;12.14;44.53;101728.09;5087833;27;96840;-77
2021/08/25 08:35:56;;;;;;;1999.90;999.90;;;;;;;12.19;44.53;101721.16;5090172;27;96886;-76
2021/08/25 08:38:24;;;;;;;1999.90;999.90;;;;;;;12.23;44.04;101723.06;5070985;27;97523;-77
2021/08/25 08:40:53;;;;;;;1999.90;999.90;;;;;;;12.28;44.30;101717.84;5069477;27;100748;-77
2021/08/25 08:43:21;;;;;;;1999.90;999.90;;;;;;;12.34;44.04;101715.34;5069397;27;96825;-77
2021/08/25 08:45:50;;;;;;;1999.90;999.90;;;;;;;12.40;44.07;101710.22;5068392;27;96972;-77
2021/08/25 08:48:18;;;;;;;1999.90;999.90;;;;;;;12.46;43.90;101713.94;5072267;27;97987;-77
2021/08/25 08:50:46;;;;;;;1999.90;999.90;;;;;;;12.53;43.78;101712.38;5057691;27;100987;-77
2021/08/25 08:53:17;;;;;;;1999.90;999.90;;;;;;;12.60;43.75;101712.53;5068923;27;96792;-77
2021/08/25 08:55:45;;;;;;;1999.90;999.90;;;;;;;12.66;43.39;101715.41;5084989;27;96952;-76
2021/08/25 08:58:15;;;;;;;1999.90;999.90;;;;;;;12.73;43.19;101711.16;5071051;27;100736;-78
2021/08/25 09:00:43;;;;;;;1999.90;999.90;;;;;;;12.78;43.06;101710.38;5067445;27;100183;-78
2021/08/25 09:03:20;;;;;;;1999.90;999.90;;;;;;;12.85;42.95;101704.34;5047920;27;96868;-77
2021/08/25 09:05:54;;;;;;;1999.90;999.90;;;;;;;12.94;43.00;101701.94;5067860;27;96908;-77
2021/08/25 09:08:26;;;;;;;1999.90;999.90;;;;;;;13.04;42.88;101701.31;5050339;27;98956;-77
2021/08/25 09:11:03;;;;;;;1999.90;999.90;;;;;;;13.09;42.21;101688.09;5052020;27;99648;-76
2021/08/25 09:13:38;;;;;;;1999.90;999.90;;;;;;;13.13;42.19;101677.50;5065224;27;96857;-78
2021/08/25 09:16:06;;;;;;;1999.90;999.90;;;;;;;13.20;42.39;101674.97;5068900;27;97086;-77
2021/08/25 09:18:35;;;;;;;1999.90;999.90;;;;;;;13.26;42.11;101681.38;5066089;27;99705;-78
2021/08/25 09:21:03;;;;;;;1999.90;999.90;;;;;;;13.28;42.13;101682.31;5071441;27;97537;-78
2021/08/25 09:23:31;;;;;;;1999.90;999.90;;;;;;;13.34;42.08;101678.88;5067097;27;96861;-78
2021/08/25 09:26:01;;;;;;;1999.90;999.90;;;;;;;13.38;41.93;101679.00;5087703;27;97203;-77
2021/08/25 09:28:32;;;;;;;1999.90;999.90;;;;;;;13.43;41.94;101676.44;5084662;27;98204;-78
2021/08/25 09:31:04;;;;;;;1999.90;999.90;;;;;;;13.48;41.70;101664.06;5054184;27;98316;-77
2021/08/25 09:33:34;;;;;;;1999.90;999.90;;;;;;;13.54;41.69;101653.50;5069748;27;96953;-77
2021/08/25 09:36:04;;;;;;;1999.90;999.90;;;;;;;13.61;41.60;101656.38;5067131;27;97474;-77
2021/08/25 09:38:34;;;;;;;1999.90;999.90;;;;;;;13.67;41.48;101644.91;5065883;27;98657;-78
2021/08/25 09:41:06;;;;;;;1999.90;999.90;;;;;;;13.72;41.19;101638.78;5051043;27;100376;-78
2021/08/25 09:43:41;;;;;;;1999.90;999.90;;;;;;;13.76;40.94;101648.69;5052133;27;96825;-77
2021/08/25 09:46:13;;;;;;;1999.90;999.90;;;;;;;13.79;40.37;101645.19;5051024;27;97180;-78
2021/08/25 09:48:42;;;;;;;1999.90;999.90;;;;;;;13.81;40.81;101635.44;5066884;27;98124;-78
2021/08/25 09:51:11;;;;;;;1999.90;999.90;;;;;;;13.81;40.93;101633.66;5049478;27;100288;-77
2021/08/25 09:53:40;;;;;;;1999.90;999.90;;;;;;;13.84;40.79;101633.72;5052380;27;96837;-77
2021/08/25 09:56:31;;;;;;;1999.90;999.90;;;;;;;13.86;40.10;101633.78;5051638;27;96883;-77
2021/08/25 09:58:59;;;;;;;1999.90;999.90;;;;;;;13.93;40.78;101633.03;5066817;27;99857;-77
2021/08/25 10:01:29;;;;;;;1999.90;999.90;;;;;;;13.96;40.57;101623.28;5089320;27;98467;-78
2021/08/25 10:04:01;;;;;;;1999.90;999.90;;;;;;;13.98;40.53;101624.25;5069706;27;96929;-77
2021/08/25 10:06:29;;;;;;;1999.90;999.90;;;;;;;14.00;40.54;101619.81;5050873;27;96975;-77
2021/08/25 10:08:57;;;;;;;1999.90;999.90;;;;;;;14.04;40.44;101610.06;5069815;27;97651;-77
2021/08/25 10:11:29;;;;;;;1999.90;999.90;;;;;;;14.05;40.38;101607.44;5069549;27;98528;-77
2021/08/25 10:13:57;;;;;;;1999.90;999.90;;;;;;;14.11;40.45;101594.19;5069307;27;96820;-78
2021/08/25 10:16:44;;;;;;;1999.90;999.90;;;;;;;14.09;39.53;101592.31;5067625;27;96872;-77
2021/08/25 10:19:29;;;;;;;1999.90;999.90;;;;;;;14.11;38.62;101590.59;5052447;27;100650;-79
2021/08/25 10:21:58;;;;;;;1999.90;999.90;;;;;;;14.14;40.12;101583.50;5051714;27;99418;-76
2021/08/25 10:24:26;;;;;;;1999.90;999.90;;;;;;;14.18;39.95;101587.16;5066576;27;97161;-76
2021/08/25 10:27:07;;;;;;;1999.90;999.90;;;;;;;14.20;38.36;101584.50;5068109;27;96862;-77
2021/08/25 10:30:10;;;;;;;1999.90;999.90;;;;;;;14.20;39.04;101579.13;5087272;27;98987;-77
2021/08/25 10:33:12;;;;;;;1999.90;999.90;;;;;;;14.19;38.67;101580.91;5069674;27;97700;-76
2021/08/25 10:35:42;;;;;;;1999.90;999.90;;;;;;;14.23;39.83;101563.13;5047411;27;96957;-77
2021/08/25 10:38:31;;;;;;;1999.90;999.90;;;;;;;14.23;38.32;101564.03;5070471;27;96960;-77
2021/08/25 10:41:20;;;;;;;1999.90;999.90;;;;;;;14.26;38.71;101553.41;5062554;27;98513;-77
2021/08/25 10:43:48;;;;;;;1999.90;999.90;;;;;;;14.28;39.61;101546.28;5048740;27;99590;-77
2021/08/25 10:46:19;;;;;;;1999.90;999.90;;;;;;;14.31;39.74;101542.75;5064488;27;96878;-76
2021/08/25 10:48:57;;;;;;;1999.90;999.90;;;;;;;14.32;39.80;101533.84;5064919;27;96956;-77
2021/08/25 10:51:41;;;;;;;1999.90;999.90;;;;;;;14.32;38.51;101525.81;5065551;27;99373;-76
2021/08/25 10:54:11;;;;;;;1999.90;999.90;;;;;;;14.37;39.47;101522.34;5064758;27;97250;-76
2021/08/25 10:56:41;;;;;;;1999.90;999.90;;;;;;;14.40;39.66;101516.16;5049977;27;96820;-76